Time;durP1;ratioP1;P1;durP2;ratioP2;P2;SDS_P1;SDS_P2;PMS_P1;PMS_P2;Temp;Humidity;BMP_temperature;BMP_pressure;BME280_temperature;BME280_humidity;BME280_pressure;Samples;Min_cycle;Max_cycle;Signal;HPM_P1;HPM_P2
2022/11/02 00:00:12;;;;;;;;;;;;;;;;;;5112258;28;19931;-57
2022/11/02 00:02:38;;;;;;;;;;;;;;;;;;5112745;28;20331;-58
2022/11/02 00:05:05;;;;;;;;;;;;;;;;;;5112714;28;19924;-58
2022/11/02 00:07:32;;;;;;;;;;;;;;;;;;5112203;28;19932;-58
2022/11/02 00:09:58;;;;;;;;;;;;;;;;;;5112489;28;20372;-58
2022/11/02 00:12:25;;;;;;;;;;;;;;;;;;5112301;28;19936;-58
2022/11/02 00:14:53;;;;;;;;;;;;;;;;;;5112659;28;20430;-56
2022/11/02 00:17:19;;;;;;;;;;;;;;;;;;5115329;28;19989;-58
2022/11/02 00:19:46;;;;;;;;;;;;;;;;;;5116268;28;19969;-58
2022/11/02 00:22:12;;;;;;;;;;;;;;;;;;5116069;28;19931;-58
2022/11/02 00:24:39;;;;;;;;;;;;;;;;;;5116277;27;20350;-57
2022/11/02 00:27:06;;;;;;;;;;;;;;;;;;5116228;28;19931;-57
2022/11/02 00:29:33;;;;;;;;;;;;;;;;;;5116023;28;20331;-58
2022/11/02 00:32:01;;;;;;;;;;;;;;;;;;5116143;27;19923;-57
2022/11/02 00:34:27;;;;;;;;;;;;;;;;;;5115962;28;19989;-57
2022/11/02 00:36:54;;;;;;;;;;;;;;;;;;5115790;28;20670;-58
2022/11/02 00:39:21;;;;;;;;;;;;;;;;;;5116041;28;19924;-57
2022/11/02 00:41:47;;;;;;;;;;;;;;;;;;5115868;27;20397;-59
2022/11/02 00:44:14;;;;;;;;;;;;;;;;;;5115615;28;19924;-55
2022/11/02 00:46:40;;;;;;;;;;;;;;;;;;5115617;28;19931;-58
2022/11/02 00:49:08;;;;;;;;;;;;;;;;;;5115862;28;20368;-57
2022/11/02 00:51:35;;;;;;;;;;;;;;;;;;5115500;28;19972;-58
2022/11/02 00:54:01;;;;;;;;;;;;;;;;;;5115441;28;19924;-58
2022/11/02 00:56:28;;;;;;;;;;;;;;;;;;5115674;28;19977;-58
2022/11/02 00:58:54;;;;;;;;;;;;;;;;;;5115509;28;20353;-59
2022/11/02 01:01:21;;;;;;;;;;;;;;;;;;5115172;28;20373;-57
2022/11/02 01:03:47;;;;;;;;;;;;;;;;;;5115376;28;19924;-58
2022/11/02 01:06:15;;;;;;;;;;;;;;;;;;5115370;28;20132;-57
2022/11/02 01:08:42;;;;;;;;;;;;;;;;;;5115295;28;20377;-57
2022/11/02 01:11:09;;;;;;;;;;;;;;;;;;5115349;28;19924;-58
2022/11/02 01:13:36;;;;;;;;;;;;;;;;;;5115051;28;19928;-57
2022/11/02 01:16:03;;;;;;;;;;;;;;;;;;5114980;28;19972;-57
2022/11/02 01:18:30;;;;;;;;;;;;;;;;;;5114886;28;20400;-58
2022/11/02 01:20:56;;;;;;;;;;;;;;;;;;5115236;28;19930;-57
2022/11/02 01:23:25;;;;;;;;;;;;;;;;;;5115156;28;20393;-57
2022/11/02 01:25:51;;;;;;;;;;;;;;;;;;5115258;28;20011;-57
2022/11/02 01:28:18;;;;;;;;;;;;;;;;;;5114528;28;19924;-57
2022/11/02 01:30:47;;;;;;;;;;;;;;;;;;5115027;28;20000;-57
2022/11/02 01:33:13;;;;;;;;;;;;;;;;;;5115011;28;19928;-54
2022/11/02 01:35:40;;;;;;;;;;;;;;;;;;5114564;28;19953;-57
2022/11/02 01:38:06;;;;;;;;;;;;;;;;;;5114702;28;20384;-56
2022/11/02 01:40:36;;;;;;;;;;;;;;;;;;5114897;28;20372;-58
2022/11/02 01:43:17;;;;;;;;;;;;;;;;;;5114279;27;19923;-58
2022/11/02 01:45:44;;;;;;;;;;;;;;;;;;5114584;28;19949;-57
2022/11/02 01:48:10;;;;;;;;;;;;;;;;;;5114625;28;20365;-55
2022/11/02 01:50:37;;;;;;;;;;;;;;;;;;5115240;28;19924;-57
2022/11/02 01:53:03;;;;;;;;;;;;;;;;;;5103846;22;19935;-75
2022/11/02 01:55:32;;;;;;;;;;;;;;;;;;5060278;28;19982;-75
2022/11/02 01:58:01;;;;;;;;;;;;;;;;;;5057870;28;20016;-75
2022/11/02 02:00:28;;;;;;;;;;;;;;;;;;5057641;28;20423;-75
2022/11/02 02:02:55;;;;;;;;;;;;;;;;;;5053442;28;20400;-75
2022/11/02 02:05:23;;;;;;;;;;;;;;;;;;5053704;28;19972;-75
2022/11/02 02:07:50;;;;;;;;;;;;;;;;;;5052842;28;20367;-75
2022/11/02 02:10:17;;;;;;;;;;;;;;;;;;5053158;28;19982;-75
2022/11/02 02:12:43;;;;;;;;;;;;;;;;;;5053065;28;19983;-75
2022/11/02 02:15:14;;;;;;;;;;;;;;;;;;5053115;28;20008;-75
2022/11/02 02:17:44;;;;;;;;;;;;;;;;;;5052793;28;20007;-75
2022/11/02 02:20:16;;;;;;;;;;;;;;;;;;5052823;28;20011;-74
2022/11/02 02:23:15;;;;;;;;;;;;;;;;;;5053055;28;20379;-75
2022/11/02 02:25:50;;;;;;;;;;;;;;;;;;5052733;28;20338;-75
2022/11/02 02:28:19;;;;;;;;;;;;;;;;;;5052755;28;20071;-75
2022/11/02 02:30:50;;;;;;;;;;;;;;;;;;5053108;28;19925;-75
2022/11/02 02:33:21;;;;;;;;;;;;;;;;;;5053052;28;19960;-75
2022/11/02 02:35:52;;;;;;;;;;;;;;;;;;5052522;28;20368;-75
2022/11/02 02:38:23;;;;;;;;;;;;;;;;;;5052597;28;20027;-75
2022/11/02 02:40:52;;;;;;;;;;;;;;;;;;5051874;28;20008;-75
2022/11/02 02:43:24;;;;;;;;;;;;;;;;;;5052740;28;19983;-75
2022/11/02 02:45:53;;;;;;;;;;;;;;;;;;5057007;28;19967;-74
2022/11/02 02:48:20;;;;;;;;;;;;;;;;;;5052381;28;19960;-75
2022/11/02 02:50:48;;;;;;;;;;;;;;;;;;5052392;28;20442;-75
2022/11/02 02:53:15;;;;;;;;;;;;;;;;;;5052214;28;20475;-75
2022/11/02 02:55:44;;;;;;;;;;;;;;;;;;5052286;28;19925;-75
2022/11/02 02:58:12;;;;;;;;;;;;;;;;;;5051825;28;19972;-75
2022/11/02 03:00:40;;;;;;;;;;;;;;;;;;5052335;28;19979;-75
2022/11/02 03:03:07;;;;;;;;;;;;;;;;;;5047307;28;19975;-75
2022/11/02 03:05:34;;;;;;;;;;;;;;;;;;5032596;28;19979;-75
2022/11/02 03:08:02;;;;;;;;;;;;;;;;;;5032117;28;19972;-75
2022/11/02 03:10:31;;;;;;;;;;;;;;;;;;5032407;28;19975;-75
2022/11/02 03:13:04;;;;;;;;;;;;;;;;;;5032170;28;19971;-75
2022/11/02 03:15:35;;;;;;;;;;;;;;;;;;5032094;28;20004;-75
2022/11/02 03:18:10;;;;;;;;;;;;;;;;;;5031927;28;19925;-75
2022/11/02 03:20:42;;;;;;;;;;;;;;;;;;5032419;28;19960;-75
2022/11/02 03:23:12;;;;;;;;;;;;;;;;;;5032189;28;19975;-75
2022/11/02 03:25:43;;;;;;;;;;;;;;;;;;5031979;28;19936;-75
2022/11/02 03:28:12;;;;;;;;;;;;;;;;;;5031804;28;20399;-75
2022/11/02 03:30:42;;;;;;;;;;;;;;;;;;5032260;28;20012;-75
2022/11/02 03:33:15;;;;;;;;;;;;;;;;;;5032188;28;19936;-76
2022/11/02 03:35:43;;;;;;;;;;;;;;;;;;5032209;28;19925;-75
2022/11/02 03:38:12;;;;;;;;;;;;;;;;;;5031771;28;20008;-76
2022/11/02 03:40:40;;;;;;;;;;;;;;;;;;5031960;28;19976;-76
2022/11/02 03:43:07;;;;;;;;;;;;;;;;;;5032124;28;20004;-76
2022/11/02 03:45:38;;;;;;;;;;;;;;;;;;5047869;28;19951;-76
2022/11/02 03:48:06;;;;;;;;;;;;;;;;;;5051784;28;20379;-76
2022/11/02 03:50:34;;;;;;;;;;;;;;;;;;5052357;28;19950;-76
2022/11/02 03:53:05;;;;;;;;;;;;;;;;;;5055543;28;19925;-76
2022/11/02 03:55:33;;;;;;;;;;;;;;;;;;5055748;28;20273;-77
2022/11/02 03:58:00;;;;;;;;;;;;;;;;;;5055233;28;19925;-75
2022/11/02 04:00:28;;;;;;;;;;;;;;;;;;5055720;28;20012;-76
2022/11/02 04:02:57;;;;;;;;;;;;;;;;;;5055553;28;19931;-77
2022/11/02 04:05:27;;;;;;;;;;;;;;;;;;5055713;28;19983;-76
2022/11/02 04:14:36;;;;;;;;;;;;;;;;;;5055430;28;20020;-77
2022/11/02 04:16:10;;;;;;;;;;;;;;;;;;5055058;28;19931;-77
2022/11/02 04:21:20;;;;;;;;;;;;;;;;;;5055408;28;19932;-75
2022/11/02 04:26:32;;;;;;;;;;;;;;;;;;5053636;28;19931;-76
2022/11/02 04:28:59;;;;;;;;;;;;;;;;;;5054355;28;19979;-76
2022/11/02 04:31:25;;;;;;;;;;;;;;;;;;5054996;28;19931;-76
2022/11/02 04:33:50;;;;;;;;;;;;;;;;;;5054732;28;19991;-76
2022/11/02 04:36:17;;;;;;;;;;;;;;;;;;5054755;28;19964;-76
2022/11/02 04:38:42;;;;;;;;;;;;;;;;;;5054649;28;20356;-76
2022/11/02 04:43:56;;;;;;;;;;;;;;;;;;5046090;28;19940;-76
2022/11/02 04:46:23;;;;;;;;;;;;;;;;;;5045025;28;19975;-76
2022/11/02 04:48:49;;;;;;;;;;;;;;;;;;5035072;28;19972;-77
2022/11/02 04:51:16;;;;;;;;;;;;;;;;;;5034907;28;20016;-76
2022/11/02 04:53:42;;;;;;;;;;;;;;;;;;5039221;28;19967;-76
2022/11/02 04:56:09;;;;;;;;;;;;;;;;;;5044606;28;19925;-76
2022/11/02 04:58:37;;;;;;;;;;;;;;;;;;5048952;28;19967;-76
2022/11/02 05:01:07;;;;;;;;;;;;;;;;;;5058631;28;19967;-76
2022/11/02 05:03:33;;;;;;;;;;;;;;;;;;5055054;28;20380;-76
2022/11/02 05:06:00;;;;;;;;;;;;;;;;;;5054506;28;19968;-76
2022/11/02 05:08:26;;;;;;;;;;;;;;;;;;5054501;28;20023;-76
2022/11/02 05:10:54;;;;;;;;;;;;;;;;;;5054503;28;20031;-77
2022/11/02 05:13:20;;;;;;;;;;;;;;;;;;5054411;28;20015;-76
2022/11/02 05:15:48;;;;;;;;;;;;;;;;;;5054256;28;20032;-76
2022/11/02 05:18:14;;;;;;;;;;;;;;;;;;5053825;28;19995;-77
2022/11/02 05:20:41;;;;;;;;;;;;;;;;;;5053947;28;20472;-77
2022/11/02 05:23:07;;;;;;;;;;;;;;;;;;5054247;28;19983;-77
2022/11/02 05:25:34;;;;;;;;;;;;;;;;;;5054196;28;19971;-77
2022/11/02 05:28:00;;;;;;;;;;;;;;;;;;5053877;28;19935;-77
2022/11/02 05:30:26;;;;;;;;;;;;;;;;;;5053946;28;20046;-77
2022/11/02 05:32:57;;;;;;;;;;;;;;;;;;5054320;28;20019;-77
2022/11/02 05:35:23;;;;;;;;;;;;;;;;;;5053904;28;19929;-77
2022/11/02 05:37:50;;;;;;;;;;;;;;;;;;5053798;28;19928;-77
2022/11/02 05:40:16;;;;;;;;;;;;;;;;;;5053838;28;20021;-77
2022/11/02 05:42:43;;;;;;;;;;;;;;;;;;5053910;28;19975;-76
2022/11/02 05:45:10;;;;;;;;;;;;;;;;;;5053677;28;19960;-76
2022/11/02 05:47:36;;;;;;;;;;;;;;;;;;5053171;28;19931;-76
2022/11/02 05:50:04;;;;;;;;;;;;;;;;;;5053371;28;20003;-76
2022/11/02 05:52:31;;;;;;;;;;;;;;;;;;5053701;28;20015;-76
2022/11/02 05:54:57;;;;;;;;;;;;;;;;;;5053558;28;20287;-76
2022/11/02 05:57:24;;;;;;;;;;;;;;;;;;5053468;28;19925;-76
2022/11/02 05:59:50;;;;;;;;;;;;;;;;;;5053260;28;20418;-77
2022/11/02 06:02:16;;;;;;;;;;;;;;;;;;5053327;28;20376;-76
2022/11/02 06:04:43;;;;;;;;;;;;;;;;;;5035284;28;20008;-75
2022/11/02 06:07:11;;;;;;;;;;;;;;;;;;5033169;28;19964;-76
2022/11/02 06:09:37;;;;;;;;;;;;;;;;;;5033299;28;20016;-77
2022/11/02 06:12:04;;;;;;;;;;;;;;;;;;5033322;28;20023;-76
2022/11/02 06:14:30;;;;;;;;;;;;;;;;;;5033061;28;20016;-77
2022/11/02 06:16:57;;;;;;;;;;;;;;;;;;5033155;28;20078;-76
2022/11/02 06:19:23;;;;;;;;;;;;;;;;;;5033348;28;20008;-77
2022/11/02 06:21:49;;;;;;;;;;;;;;;;;;5033649;28;19960;-77
2022/11/02 06:24:17;;;;;;;;;;;;;;;;;;5033244;28;20008;-77
2022/11/02 06:26:45;;;;;;;;;;;;;;;;;;5032834;28;19965;-77
2022/11/02 06:29:12;;;;;;;;;;;;;;;;;;5032719;28;20500;-76
2022/11/02 06:31:38;;;;;;;;;;;;;;;;;;5033320;28;19932;-76
2022/11/02 06:34:05;;;;;;;;;;;;;;;;;;5033161;28;20312;-76
2022/11/02 06:36:31;;;;;;;;;;;;;;;;;;5032574;28;20423;-76
2022/11/02 06:38:57;;;;;;;;;;;;;;;;;;5032813;28;20007;-76
2022/11/02 06:41:25;;;;;;;;;;;;;;;;;;5033071;28;19957;-77
2022/11/02 06:43:52;;;;;;;;;;;;;;;;;;5032876;28;19984;-76
2022/11/02 06:46:18;;;;;;;;;;;;;;;;;;5032649;28;20381;-76
2022/11/02 06:48:46;;;;;;;;;;;;;;;;;;5032580;28;19967;-76
2022/11/02 06:51:13;;;;;;;;;;;;;;;;;;5034291;28;19964;-76
2022/11/02 06:53:39;;;;;;;;;;;;;;;;;;5034419;28;20397;-76
2022/11/02 06:56:06;;;;;;;;;;;;;;;;;;5034102;28;19963;-76
2022/11/02 06:58:34;;;;;;;;;;;;;;;;;;5033648;28;20007;-77
2022/11/02 07:01:01;;;;;;;;;;;;;;;;;;5033883;28;19949;-75
2022/11/02 07:03:28;;;;;;;;;;;;;;;;;;5033456;28;20602;-75
2022/11/02 07:05:55;;;;;;;;;;;;;;;;;;5032933;28;19961;-76
2022/11/02 07:08:21;;;;;;;;;;;;;;;;;;5033383;28;19929;-75
2022/11/02 07:10:47;;;;;;;;;;;;;;;;;;5033883;28;19925;-75
2022/11/02 07:13:14;;;;;;;;;;;;;;;;;;5033175;28;19992;-75
2022/11/02 07:15:42;;;;;;;;;;;;;;;;;;5033187;28;19925;-74
2022/11/02 07:18:09;;;;;;;;;;;;;;;;;;5032874;28;20332;-75
2022/11/02 07:20:35;;;;;;;;;;;;;;;;;;5033272;28;19926;-75
2022/11/02 07:23:02;;;;;;;;;;;;;;;;;;5033072;28;20024;-75
2022/11/02 07:25:30;;;;;;;;;;;;;;;;;;5032255;28;19932;-75
2022/11/02 07:27:58;;;;;;;;;;;;;;;;;;5032412;28;20466;-75
2022/11/02 07:30:25;;;;;;;;;;;;;;;;;;5032184;28;20335;-75
2022/11/02 07:32:53;;;;;;;;;;;;;;;;;;5032425;28;19971;-75
2022/11/02 07:35:19;;;;;;;;;;;;;;;;;;5032187;28;20452;-75
2022/11/02 07:37:54;;;;;;;;;;;;;;;;;;5031763;28;19972;-76
2022/11/02 07:40:21;;;;;;;;;;;;;;;;;;5032149;28;19975;-76
2022/11/02 07:42:47;;;;;;;;;;;;;;;;;;5032320;28;19945;-76
2022/11/02 07:45:14;;;;;;;;;;;;;;;;;;5032556;28;19984;-75
2022/11/02 07:47:43;;;;;;;;;;;;;;;;;;5040377;28;19983;-75
2022/11/02 07:50:11;;;;;;;;;;;;;;;;;;5043717;28;19929;-76
2022/11/02 07:52:43;;;;;;;;;;;;;;;;;;5042351;28;19925;-74
2022/11/02 07:55:09;;;;;;;;;;;;;;;;;;5036147;28;19967;-76
2022/11/02 07:57:36;;;;;;;;;;;;;;;;;;5033864;28;20336;-76
2022/11/02 08:00:03;;;;;;;;;;;;;;;;;;5033091;28;19971;-76
2022/11/02 08:02:30;;;;;;;;;;;;;;;;;;5032263;28;19960;-76
2022/11/02 08:04:56;;;;;;;;;;;;;;;;;;5032256;28;19976;-76
2022/11/02 08:07:24;;;;;;;;;;;;;;;;;;5031358;28;19964;-76
2022/11/02 08:09:50;;;;;;;;;;;;;;;;;;5033255;28;19936;-74
2022/11/02 08:12:17;;;;;;;;;;;;;;;;;;5045917;28;19980;-76
2022/11/02 08:14:43;;;;;;;;;;;;;;;;;;5068741;28;20447;-75
2022/11/02 08:17:11;;;;;;;;;;;;;;;;;;5069462;28;19999;-77
2022/11/02 08:19:37;;;;;;;;;;;;;;;;;;5069497;28;20023;-76
2022/11/02 08:22:04;;;;;;;;;;;;;;;;;;5070047;28;20019;-75
2022/11/02 08:24:31;;;;;;;;;;;;;;;;;;5069990;28;20012;-76
2022/11/02 08:26:58;;;;;;;;;;;;;;;;;;5069455;28;20023;-76
2022/11/02 08:29:25;;;;;;;;;;;;;;;;;;5069890;28;19952;-75
2022/11/02 08:31:51;;;;;;;;;;;;;;;;;;5069708;28;20008;-75
2022/11/02 08:34:18;;;;;;;;;;;;;;;;;;5069652;28;19924;-75
2022/11/02 08:36:44;;;;;;;;;;;;;;;;;;5069078;28;20017;-75
2022/11/02 08:39:11;;;;;;;;;;;;;;;;;;5072122;28;19924;-76
2022/11/02 08:41:38;;;;;;;;;;;;;;;;;;5073059;28;20024;-76
2022/11/02 08:44:05;;;;;;;;;;;;;;;;;;5072835;28;19967;-76
2022/11/02 08:46:32;;;;;;;;;;;;;;;;;;5072730;28;20388;-76
2022/11/02 08:48:58;;;;;;;;;;;;;;;;;;5073843;28;19924;-78
2022/11/02 08:51:25;;;;;;;;;;;;;;;;;;5075906;28;20013;-76
2022/11/02 08:53:51;;;;;;;;;;;;;;;;;;5073607;28;19968;-76
2022/11/02 08:56:18;;;;;;;;;;;;;;;;;;5073919;28;19924;-76
2022/11/02 08:58:46;;;;;;;;;;;;;;;;;;5073815;28;19964;-75
2022/11/02 09:01:13;;;;;;;;;;;;;;;;;;5074012;28;19975;-76
2022/11/02 09:03:39;;;;;;;;;;;;;;;;;;5064112;28;19936;-77
2022/11/02 09:06:06;;;;;;;;;;;;;;;;;;5053013;28;20036;-75
2022/11/02 09:08:35;;;;;;;;;;;;;;;;;;5052718;28;19976;-78
2022/11/02 09:11:02;;;;;;;;;;;;;;;;;;5053398;28;20019;-76
2022/11/02 09:13:30;;;;;;;;;;;;;;;;;;5052801;28;20016;-77
2022/11/02 09:15:59;;;;;;;;;;;;;;;;;;5054124;28;19925;-77
2022/11/02 09:18:28;;;;;;;;;;;;;;;;;;5053236;28;19979;-77
2022/11/02 09:20:55;;;;;;;;;;;;;;;;;;5052788;28;19975;-77
2022/11/02 09:23:24;;;;;;;;;;;;;;;;;;5052236;28;19979;-78
2022/11/02 09:25:50;;;;;;;;;;;;;;;;;;5053232;28;20067;-78
2022/11/02 09:28:19;;;;;;;;;;;;;;;;;;5052947;28;19925;-78
2022/11/02 09:30:46;;;;;;;;;;;;;;;;;;5052482;28;19968;-77
2022/11/02 09:33:16;;;;;;;;;;;;;;;;;;5052774;28;20012;-78
2022/11/02 09:35:46;;;;;;;;;;;;;;;;;;5053379;28;20011;-75
2022/11/02 09:38:13;;;;;;;;;;;;;;;;;;5052016;28;19999;-75
2022/11/02 09:40:41;;;;;;;;;;;;;;;;;;5052193;28;20368;-75
2022/11/02 09:43:13;;;;;;;;;;;;;;;;;;5051906;28;19959;-75
2022/11/02 09:45:42;;;;;;;;;;;;;;;;;;5051706;28;20331;-75
2022/11/02 09:48:11;;;;;;;;;;;;;;;;;;5051556;28;20542;-75
2022/11/02 09:50:42;;;;;;;;;;;;;;;;;;5051653;28;20392;-75
2022/11/02 09:53:10;;;;;;;;;;;;;;;;;;5052405;28;19929;-76
2022/11/02 09:55:40;;;;;;;;;;;;;;;;;;5052343;28;19968;-75
2022/11/02 09:58:11;;;;;;;;;;;;;;;;;;5051480;28;20008;-75
2022/11/02 10:00:40;;;;;;;;;;;;;;;;;;5051688;28;19968;-75
2022/11/02 10:03:09;;;;;;;;;;;;;;;;;;5051708;28;19925;-76
2022/11/02 10:05:40;;;;;;;;;;;;;;;;;;5051569;28;20360;-75
2022/11/02 10:08:23;;;;;;;;;;;;;;;;;;5051242;28;20003;-75
2022/11/02 10:10:53;;;;;;;;;;;;;;;;;;5051683;28;19983;-76
2022/11/02 10:13:27;;;;;;;;;;;;;;;;;;5051470;28;20016;-76
2022/11/02 10:15:55;;;;;;;;;;;;;;;;;;5051622;28;19928;-76
2022/11/02 10:18:24;;;;;;;;;;;;;;;;;;5050953;28;19974;-75
2022/11/02 10:20:52;;;;;;;;;;;;;;;;;;5051610;28;20016;-76
2022/11/02 10:23:22;;;;;;;;;;;;;;;;;;5050931;28;20368;-75
2022/11/02 10:25:49;;;;;;;;;;;;;;;;;;5050887;28;19925;-75
2022/11/02 10:28:18;;;;;;;;;;;;;;;;;;5050745;28;19960;-76
2022/11/02 10:30:45;;;;;;;;;;;;;;;;;;5050817;28;19968;-75
2022/11/02 10:33:13;;;;;;;;;;;;;;;;;;5050918;28;20024;-75
2022/11/02 10:35:45;;;;;;;;;;;;;;;;;;5050977;28;19925;-76
2022/11/02 10:38:19;;;;;;;;;;;;;;;;;;5050525;28;19925;-75
2022/11/02 10:40:57;;;;;;;;;;;;;;;;;;5050518;28;20406;-75
2022/11/02 10:43:28;;;;;;;;;;;;;;;;;;5050384;28;20371;-78
2022/11/02 10:46:04;;;;;;;;;;;;;;;;;;5050975;28;20015;-78
2022/11/02 10:48:34;;;;;;;;;;;;;;;;;;5051542;28;19925;-78
2022/11/02 10:51:05;;;;;;;;;;;;;;;;;;5050781;28;20367;-78
2022/11/02 10:53:35;;;;;;;;;;;;;;;;;;5054286;28;19925;-79
2022/11/02 10:56:04;;;;;;;;;;;;;;;;;;5055040;28;19925;-78
2022/11/02 10:58:32;;;;;;;;;;;;;;;;;;5055416;28;19925;-79
2022/11/02 11:01:06;;;;;;;;;;;;;;;;;;5055486;28;19933;-79
2022/11/02 11:03:33;;;;;;;;;;;;;;;;;;5066255;28;19929;-78
2022/11/02 11:06:00;;;;;;;;;;;;;;;;;;5070335;28;19925;-76
2022/11/02 11:08:28;;;;;;;;;;;;;;;;;;5064425;28;19925;-78
2022/11/02 11:10:55;;;;;;;;;;;;;;;;;;5053996;28;19925;-80
2022/11/02 11:13:23;;;;;;;;;;;;;;;;;;5052105;28;19964;-79
2022/11/02 11:15:50;;;;;;;;;;;;;;;;;;5054953;28;20415;-77
2022/11/02 11:18:18;;;;;;;;;;;;;;;;;;5056879;28;19976;-79
2022/11/02 11:20:45;;;;;;;;;;;;;;;;;;5061415;28;19964;-78
2022/11/02 11:23:21;;;;;;;;;;;;;;;;;;5059352;28;20022;-78
2022/11/02 11:25:55;;;;;;;;;;;;;;;;;;5058372;28;19956;-77
2022/11/02 11:28:25;;;;;;;;;;;;;;;;;;5056794;28;19956;-77
2022/11/02 11:31:01;;;;;;;;;;;;;;;;;;5057363;28;19924;-77
2022/11/02 11:33:28;;;;;;;;;;;;;;;;;;5053582;28;19925;-75
2022/11/02 11:35:55;;;;;;;;;;;;;;;;;;5050460;28;20024;-75
2022/11/02 11:38:23;;;;;;;;;;;;;;;;;;5050959;28;19971;-76
2022/11/02 11:40:52;;;;;;;;;;;;;;;;;;5050738;28;19988;-76
2022/11/02 11:43:20;;;;;;;;;;;;;;;;;;5052274;28;19931;-77
2022/11/02 11:45:55;;;;;;;;;;;;;;;;;;5050421;28;19925;-77
2022/11/02 11:48:25;;;;;;;;;;;;;;;;;;5050037;28;19932;-76
2022/11/02 11:50:52;;;;;;;;;;;;;;;;;;5050264;28;20013;-77
2022/11/02 11:53:20;;;;;;;;;;;;;;;;;;5049984;28;19925;-76
2022/11/02 11:55:48;;;;;;;;;;;;;;;;;;5049874;28;19979;-76
2022/11/02 11:58:16;;;;;;;;;;;;;;;;;;5049325;28;19925;-76
2022/11/02 12:00:43;;;;;;;;;;;;;;;;;;5049678;28;20419;-76
2022/11/02 12:03:11;;;;;;;;;;;;;;;;;;5049894;28;19968;-76
2022/11/02 12:05:42;;;;;;;;;;;;;;;;;;5050121;28;19978;-77
2022/11/02 12:08:22;;;;;;;;;;;;;;;;;;5050130;28;20388;-77
2022/11/02 12:11:08;;;;;;;;;;;;;;;;;;5050745;28;19976;-77
2022/11/02 12:13:44;;;;;;;;;;;;;;;;;;5054380;28;19968;-77
2022/11/02 12:16:14;;;;;;;;;;;;;;;;;;5068085;28;19972;-76
2022/11/02 12:18:48;;;;;;;;;;;;;;;;;;5073322;28;19931;-76
2022/11/02 12:21:22;;;;;;;;;;;;;;;;;;5073369;28;19971;-77
2022/11/02 12:23:55;;;;;;;;;;;;;;;;;;5073434;28;20014;-77
2022/11/02 12:26:29;;;;;;;;;;;;;;;;;;5073472;28;19972;-76
2022/11/02 12:28:59;;;;;;;;;;;;;;;;;;5072868;28;20704;-76
2022/11/02 12:31:31;;;;;;;;;;;;;;;;;;5073550;28;19990;-76
2022/11/02 12:34:18;;;;;;;;;;;;;;;;;;5073208;28;20473;-77
2022/11/02 12:36:51;;;;;;;;;;;;;;;;;;5067632;28;19974;-77
2022/11/02 12:39:22;;;;;;;;;;;;;;;;;;5073071;28;20019;-77
2022/11/02 12:42:07;;;;;;;;;;;;;;;;;;5073046;28;20403;-77
2022/11/02 12:44:38;;;;;;;;;;;;;;;;;;5072751;28;20617;-74
2022/11/02 12:47:08;;;;;;;;;;;;;;;;;;5072725;28;20562;-77
2022/11/02 12:49:39;;;;;;;;;;;;;;;;;;5073188;28;19975;-77
2022/11/02 12:52:13;;;;;;;;;;;;;;;;;;5073567;28;19986;-77
2022/11/02 12:54:41;;;;;;;;;;;;;;;;;;5072783;28;20367;-78
2022/11/02 12:57:11;;;;;;;;;;;;;;;;;;5072373;28;19964;-78
2022/11/02 12:59:40;;;;;;;;;;;;;;;;;;5072800;28;19982;-78
2022/11/02 13:02:11;;;;;;;;;;;;;;;;;;5072694;28;19975;-77
2022/11/02 13:04:44;;;;;;;;;;;;;;;;;;5055033;28;19967;-77
2022/11/02 13:07:13;;;;;;;;;;;;;;;;;;5052123;28;20416;-77
2022/11/02 13:09:41;;;;;;;;;;;;;;;;;;5052174;28;20016;-77
2022/11/02 13:12:11;;;;;;;;;;;;;;;;;;5052512;28;19978;-78
2022/11/02 13:14:39;;;;;;;;;;;;;;;;;;5052192;28;19925;-76
2022/11/02 13:17:10;;;;;;;;;;;;;;;;;;5051765;28;20035;-76
2022/11/02 13:19:39;;;;;;;;;;;;;;;;;;5052152;28;19931;-76
2022/11/02 13:22:08;;;;;;;;;;;;;;;;;;5052043;28;20640;-76
2022/11/02 13:24:38;;;;;;;;;;;;;;;;;;5051500;28;20023;-76
2022/11/02 13:27:06;;;;;;;;;;;;;;;;;;5052000;28;20451;-78
2022/11/02 13:29:36;;;;;;;;;;;;;;;;;;5052513;28;19952;-78
2022/11/02 13:32:06;;;;;;;;;;;;;;;;;;5052747;28;20034;-77
2022/11/02 13:34:35;;;;;;;;;;;;;;;;;;5052942;28;20074;-77
2022/11/02 13:37:06;;;;;;;;;;;;;;;;;;5052562;28;19975;-77
2022/11/02 13:39:36;;;;;;;;;;;;;;;;;;5053850;28;19987;-77
2022/11/02 13:42:21;;;;;;;;;;;;;;;;;;5052479;28;19924;-76
2022/11/02 13:45:00;;;;;;;;;;;;;;;;;;5051127;28;19971;-76
2022/11/02 13:47:38;;;;;;;;;;;;;;;;;;5051705;28;20019;-76
2022/11/02 13:50:07;;;;;;;;;;;;;;;;;;5051689;28;19968;-76
2022/11/02 13:52:37;;;;;;;;;;;;;;;;;;5051550;28;19924;-77
2022/11/02 13:55:05;;;;;;;;;;;;;;;;;;5051575;28;19956;-77
2022/11/02 13:57:33;;;;;;;;;;;;;;;;;;5051591;28;20003;-76
2022/11/02 14:00:02;;;;;;;;;;;;;;;;;;5051476;28;20016;-76
2022/11/02 14:02:30;;;;;;;;;;;;;;;;;;5058578;28;19979;-77
2022/11/02 14:04:57;;;;;;;;;;;;;;;;;;5044384;28;19937;-76
2022/11/02 14:07:25;;;;;;;;;;;;;;;;;;5036684;28;19926;-76
2022/11/02 14:09:56;;;;;;;;;;;;;;;;;;5036895;28;19979;-75
2022/11/02 14:12:39;;;;;;;;;;;;;;;;;;5033820;28;20440;-77
2022/11/02 14:15:24;;;;;;;;;;;;;;;;;;5032111;28;20407;-76
2022/11/02 14:18:02;;;;;;;;;;;;;;;;;;5030835;28;19993;-77
2022/11/02 14:20:32;;;;;;;;;;;;;;;;;;5031236;28;19925;-76
2022/11/02 14:23:17;;;;;;;;;;;;;;;;;;5031645;28;20019;-76
2022/11/02 14:25:47;;;;;;;;;;;;;;;;;;5031132;28;20409;-76
2022/11/02 14:28:41;;;;;;;;;;;;;;;;;;5030781;28;20393;-76
2022/11/02 14:31:31;;;;;;;;;;;;;;;;;;5030881;28;19941;-76
2022/11/02 14:34:05;;;;;;;;;;;;;;;;;;5031329;28;19925;-77
2022/11/02 14:36:50;;;;;;;;;;;;;;;;;;5030732;28;20015;-76
2022/11/02 14:39:21;;;;;;;;;;;;;;;;;;5030874;28;19972;-77
2022/11/02 14:42:06;;;;;;;;;;;;;;;;;;5031053;28;19929;-77
2022/11/02 14:44:48;;;;;;;;;;;;;;;;;;5032722;28;19976;-78
2022/11/02 14:47:16;;;;;;;;;;;;;;;;;;5040470;28;19975;-78
2022/11/02 14:49:48;;;;;;;;;;;;;;;;;;5051406;28;20374;-76
2022/11/02 14:52:22;;;;;;;;;;;;;;;;;;5050524;28;19925;-78
2022/11/02 14:54:50;;;;;;;;;;;;;;;;;;5061280;28;19925;-77
2022/11/02 14:57:20;;;;;;;;;;;;;;;;;;5052521;28;19929;-76
2022/11/02 14:59:48;;;;;;;;;;;;;;;;;;5052664;28;19982;-75
2022/11/02 15:02:18;;;;;;;;;;;;;;;;;;5047714;28;19975;-76
2022/11/02 15:04:50;;;;;;;;;;;;;;;;;;5061844;28;19929;-77
2022/11/02 15:07:21;;;;;;;;;;;;;;;;;;5056122;28;21348;-77
2022/11/02 15:09:55;;;;;;;;;;;;;;;;;;5056919;28;20640;-77
2022/11/02 15:12:29;;;;;;;;;;;;;;;;;;5054878;28;19943;-77
2022/11/02 15:14:59;;;;;;;;;;;;;;;;;;5054543;28;19924;-77
2022/11/02 15:17:44;;;;;;;;;;;;;;;;;;5054280;28;19972;-77
2022/11/02 15:20:26;;;;;;;;;;;;;;;;;;5058868;28;19972;-77
2022/11/02 15:22:54;;;;;;;;;;;;;;;;;;5055314;28;19929;-77
2022/11/02 15:25:22;;;;;;;;;;;;;;;;;;5054642;28;19975;-77
2022/11/02 15:27:48;;;;;;;;;;;;;;;;;;5054566;28;19975;-77
2022/11/02 15:30:16;;;;;;;;;;;;;;;;;;5054122;28;20545;-77
2022/11/02 15:32:45;;;;;;;;;;;;;;;;;;5054105;28;19947;-75
2022/11/02 15:35:16;;;;;;;;;;;;;;;;;;5052590;28;19972;-75
2022/11/02 15:37:44;;;;;;;;;;;;;;;;;;5053113;28;19924;-76
2022/11/02 15:40:18;;;;;;;;;;;;;;;;;;5053840;28;19988;-77
2022/11/02 15:42:46;;;;;;;;;;;;;;;;;;5052476;28;20526;-75
2022/11/02 15:45:18;;;;;;;;;;;;;;;;;;5052204;28;20011;-78
2022/11/02 15:47:49;;;;;;;;;;;;;;;;;;5055765;28;19972;-77
2022/11/02 15:50:24;;;;;;;;;;;;;;;;;;5056387;28;19940;-78
2022/11/02 15:53:00;;;;;;;;;;;;;;;;;;5055889;28;19972;-76
2022/11/02 15:55:32;;;;;;;;;;;;;;;;;;5055538;28;20414;-76
2022/11/02 15:58:04;;;;;;;;;;;;;;;;;;5054116;28;19924;-74
2022/11/02 16:00:31;;;;;;;;;;;;;;;;;;5054233;28;19987;-76
2022/11/02 16:03:02;;;;;;;;;;;;;;;;;;5051178;28;19968;-75
2022/11/02 16:05:30;;;;;;;;;;;;;;;;;;5036389;28;19933;-78
2022/11/02 16:07:59;;;;;;;;;;;;;;;;;;5035079;28;20523;-77
2022/11/02 16:10:26;;;;;;;;;;;;;;;;;;5034807;28;20579;-78
2022/11/02 16:12:56;;;;;;;;;;;;;;;;;;5035654;28;20019;-77
2022/11/02 16:15:23;;;;;;;;;;;;;;;;;;5036254;28;19956;-77
2022/11/02 16:17:50;;;;;;;;;;;;;;;;;;5034367;28;20023;-75
2022/11/02 16:20:18;;;;;;;;;;;;;;;;;;5035867;28;19995;-77
2022/11/02 16:22:46;;;;;;;;;;;;;;;;;;5034322;28;19996;-76
2022/11/02 16:25:18;;;;;;;;;;;;;;;;;;5033805;28;19968;-77
2022/11/02 16:27:44;;;;;;;;;;;;;;;;;;5034159;28;19998;-76
2022/11/02 16:30:17;;;;;;;;;;;;;;;;;;5034285;28;19925;-76
2022/11/02 16:32:44;;;;;;;;;;;;;;;;;;5035355;28;19925;-78
2022/11/02 16:35:12;;;;;;;;;;;;;;;;;;5035509;28;20462;-78
2022/11/02 16:37:38;;;;;;;;;;;;;;;;;;5035308;28;19929;-77
2022/11/02 16:40:05;;;;;;;;;;;;;;;;;;5034505;28;20028;-76
2022/11/02 16:42:33;;;;;;;;;;;;;;;;;;5034108;28;20008;-73
2022/11/02 16:45:02;;;;;;;;;;;;;;;;;;5036629;28;20023;-78
2022/11/02 16:47:37;;;;;;;;;;;;;;;;;;5039527;28;19980;-77
2022/11/02 16:50:04;;;;;;;;;;;;;;;;;;5039780;28;20004;-77
2022/11/02 16:52:32;;;;;;;;;;;;;;;;;;5040525;28;19925;-78
2022/11/02 16:54:58;;;;;;;;;;;;;;;;;;5040263;28;19956;-77
2022/11/02 16:57:26;;;;;;;;;;;;;;;;;;5040276;28;19925;-75
2022/11/02 16:59:55;;;;;;;;;;;;;;;;;;5038541;28;20027;-76
2022/11/02 17:02:29;;;;;;;;;;;;;;;;;;5040605;28;19948;-76
2022/11/02 17:04:56;;;;;;;;;;;;;;;;;;5038415;28;19929;-75
2022/11/02 17:07:25;;;;;;;;;;;;;;;;;;5042305;28;20138;-76
2022/11/02 17:09:53;;;;;;;;;;;;;;;;;;5053107;28;19924;-76
2022/11/02 17:12:21;;;;;;;;;;;;;;;;;;5054629;28;20636;-76